Overview Statistics Trail Chart Weather Telemetry Raw packets
 

This is the latest recevied weather packets stored in our database for station/object N3LF. If no packets are shown the sender has not sent any weather packets the latest 10 day(s).

<< 63 64 65 66 67 68 69 >>
Time Temp. Humidity Pressure Rain* Wind** Luminosity Snow
1788185812 28.89° C 83% 1022.6 hPa 0 mm - 357 W/m² -
1788185507 28.33° C 84% 1022.7 hPa 0 mm - 358 W/m² -
1788185206 28.33° C 85% 1022.7 hPa 0 mm - 349 W/m² -
1788184902 27.22° C 89% 1022.8 hPa 0 mm - 338 W/m² -
1788184599 27.22° C 88% 1022.8 hPa 0 mm - 328 W/m² -
1788184295 27.22° C 88% 1022.6 hPa 0 mm - 316 W/m² -
1788184006 27.22° C 88% 1022.7 hPa 0 mm - 301 W/m² -
1788183686 26.11° C 91% 1022.7 hPa 0 mm - 281 W/m² -
1788183385 25.56° C 95% 1022.6 hPa 0 mm - 259 W/m² -
1788183080 24.44° C 97% 1022.8 hPa 0 mm - 234 W/m² -
1788182776 24.44° C 99% 1022.6 hPa 0 mm - 168 W/m² -
1788182475 23.89° C 99% 1022.8 hPa 0 mm - 56 W/m² -
1788182170 23.89° C 99% 1022.5 hPa 0 mm - 52 W/m² -
1788181867 23.33° C 99% 1022.6 hPa 0 mm - 51 W/m² -
1788181561 23.33° C 99% 1022.7 hPa 0 mm - 50 W/m² -
1788181257 22.78° C 99% 1022.6 hPa 0 mm - 49 W/m² -
1788180955 22.78° C 99% 1022.6 hPa 0 mm - 50 W/m² -
1788180651 22.78° C 99% 1022.5 hPa 0 mm - 55 W/m² -
1788180347 22.22° C 99% 1022.4 hPa 0 mm - 61 W/m² -
1788180043 22.22° C 99% 1022.4 hPa 0 mm - 61 W/m² -
1788179742 22.22° C 99% 1022.3 hPa 0 mm - 57 W/m² -
1788179437 21.67° C 99% 1022.3 hPa 0 mm - 52 W/m² -
1788179137 22.22° C 99% 1022.4 hPa 0 mm - 48 W/m² -
1788178832 21.67° C 99% 1022.1 hPa 0 mm - 44 W/m² -
1788178527 21.67° C 99% 1022 hPa 0 mm - 39 W/m² -

* Rain latest hour (hover to see other rain measurements)
** Current wind speed in m/s (hover to see current wind gust speed)